Edgewood, New Mexico
Current Conditions -  °F | °C
As of 3:15 PM on Sunday 21 Dec 2014 (Local Time) from K0E0 Reporting Station
Clear Clear  
Wind Chill: 43°   Ceiling: Unl
Heat Index: 50°   Visibility: 10mi
Dew Point: 25°   Wind: 22mph
Humidity: 38%   Direction: 280°W
Pressure: 29.87"   Gusts: 25mph
Location:  35.06°N, 106.19°W
Report Text: K0E0 212215Z AUTO 28019G22KT 10SM CLR 10/M04 A2987 RMK AO2 T00981040
Loading
Personal Weather Stations






























Interactive Weather Map New forecast layout! Learn more

10-Day Weather Forecast

Advertisements
Track Severe Weather on mobile